sensor_id;sensor_type;location;lat;lon;timestamp;temperature;humidity
76293;DHT22;67256;51.154;4.164;2023-04-24T00:00:54;13.30;71.60
76293;DHT22;67256;51.154;4.164;2023-04-24T00:03:22;13.20;71.80
76293;DHT22;67256;51.154;4.164;2023-04-24T00:05:48;13.20;71.30
76293;DHT22;67256;51.154;4.164;2023-04-24T00:08:13;13.20;71.90
76293;DHT22;67256;51.154;4.164;2023-04-24T00:10:39;13.10;71.70
76293;DHT22;67256;51.154;4.164;2023-04-24T00:13:05;13.10;72.10
76293;DHT22;67256;51.154;4.164;2023-04-24T00:15:31;13.10;72.20
76293;DHT22;67256;51.154;4.164;2023-04-24T00:17:57;13.00;71.80
76293;DHT22;67256;51.154;4.164;2023-04-24T00:20:23;12.90;72.90
76293;DHT22;67256;51.154;4.164;2023-04-24T00:22:48;12.80;73.10
76293;DHT22;67256;51.154;4.164;2023-04-24T00:25:15;12.90;72.70
76293;DHT22;67256;51.154;4.164;2023-04-24T00:27:40;12.90;72.80
76293;DHT22;67256;51.154;4.164;2023-04-24T00:30:06;12.90;72.90
76293;DHT22;67256;51.154;4.164;2023-04-24T00:32:32;12.90;72.70
76293;DHT22;67256;51.154;4.164;2023-04-24T00:34:58;13.00;72.10
76293;DHT22;67256;51.154;4.164;2023-04-24T00:37:23;13.10;72.00
76293;DHT22;67256;51.154;4.164;2023-04-24T00:39:49;13.20;71.80
76293;DHT22;67256;51.154;4.164;2023-04-24T00:42:15;13.20;71.80
76293;DHT22;67256;51.154;4.164;2023-04-24T00:44:40;13.10;72.10
76293;DHT22;67256;51.154;4.164;2023-04-24T00:47:07;13.10;72.00
76293;DHT22;67256;51.154;4.164;2023-04-24T00:49:33;13.00;71.90
76293;DHT22;67256;51.154;4.164;2023-04-24T00:51:58;13.00;71.50
76293;DHT22;67256;51.154;4.164;2023-04-24T00:54:24;13.00;71.80
76293;DHT22;67256;51.154;4.164;2023-04-24T00:56:50;13.00;71.70
76293;DHT22;67256;51.154;4.164;2023-04-24T00:59:17;13.10;71.60
76293;DHT22;67256;51.154;4.164;2023-04-24T01:01:44;13.10;71.20
76293;DHT22;67256;51.154;4.164;2023-04-24T01:04:11;13.30;71.00
76293;DHT22;67256;51.154;4.164;2023-04-24T01:06:39;13.20;71.00
76293;DHT22;67256;51.154;4.164;2023-04-24T01:09:05;13.20;71.20
76293;DHT22;67256;51.154;4.164;2023-04-24T01:11:33;13.30;71.00
76293;DHT22;67256;51.154;4.164;2023-04-24T01:13:59;13.30;70.90
76293;DHT22;67256;51.154;4.164;2023-04-24T01:16:25;13.20;71.20
76293;DHT22;67256;51.154;4.164;2023-04-24T01:18:51;13.30;70.70
76293;DHT22;67256;51.154;4.164;2023-04-24T01:21:18;13.20;70.90
76293;DHT22;67256;51.154;4.164;2023-04-24T01:23:44;13.20;70.90
76293;DHT22;67256;51.154;4.164;2023-04-24T01:26:11;13.20;70.80
76293;DHT22;67256;51.154;4.164;2023-04-24T01:28:37;13.20;70.40
76293;DHT22;67256;51.154;4.164;2023-04-24T01:31:03;13.30;70.40
76293;DHT22;67256;51.154;4.164;2023-04-24T01:33:29;13.30;70.10
76293;DHT22;67256;51.154;4.164;2023-04-24T01:35:55;13.20;70.50
76293;DHT22;67256;51.154;4.164;2023-04-24T01:38:21;13.00;71.10
76293;DHT22;67256;51.154;4.164;2023-04-24T01:40:47;12.90;71.20
76293;DHT22;67256;51.154;4.164;2023-04-24T01:43:13;12.90;71.30
76293;DHT22;67256;51.154;4.164;2023-04-24T01:45:39;13.00;70.90
76293;DHT22;67256;51.154;4.164;2023-04-24T01:48:05;13.10;70.50
76293;DHT22;67256;51.154;4.164;2023-04-24T01:50:31;13.00;71.10
76293;DHT22;67256;51.154;4.164;2023-04-24T01:52:57;13.00;70.80
76293;DHT22;67256;51.154;4.164;2023-04-24T01:55:23;13.20;70.70
76293;DHT22;67256;51.154;4.164;2023-04-24T01:57:49;13.20;70.70
76293;DHT22;67256;51.154;4.164;2023-04-24T02:00:15;13.20;70.60
76293;DHT22;67256;51.154;4.164;2023-04-24T02:02:41;13.20;70.40
76293;DHT22;67256;51.154;4.164;2023-04-24T02:05:08;13.30;70.50
76293;DHT22;67256;51.154;4.164;2023-04-24T02:07:34;13.30;70.40
76293;DHT22;67256;51.154;4.164;2023-04-24T02:09:59;13.20;70.70
76293;DHT22;67256;51.154;4.164;2023-04-24T02:12:25;13.20;71.20
76293;DHT22;67256;51.154;4.164;2023-04-24T02:14:51;13.00;71.60
76293;DHT22;67256;51.154;4.164;2023-04-24T02:17:17;13.10;71.70
76293;DHT22;67256;51.154;4.164;2023-04-24T02:19:45;13.10;71.60
76293;DHT22;67256;51.154;4.164;2023-04-24T02:22:11;13.10;71.70
76293;DHT22;67256;51.154;4.164;2023-04-24T02:24:38;13.10;71.90
76293;DHT22;67256;51.154;4.164;2023-04-24T02:27:03;12.80;72.70
76293;DHT22;67256;51.154;4.164;2023-04-24T02:29:29;12.70;73.20
76293;DHT22;67256;51.154;4.164;2023-04-24T02:31:56;12.90;73.00
76293;DHT22;67256;51.154;4.164;2023-04-24T02:34:21;12.90;72.80
76293;DHT22;67256;51.154;4.164;2023-04-24T02:36:48;12.60;74.30
76293;DHT22;67256;51.154;4.164;2023-04-24T02:39:14;12.60;74.10
76293;DHT22;67256;51.154;4.164;2023-04-24T02:41:44;12.70;73.60
76293;DHT22;67256;51.154;4.164;2023-04-24T02:44:10;12.60;74.00
76293;DHT22;67256;51.154;4.164;2023-04-24T02:46:36;12.60;74.20
76293;DHT22;67256;51.154;4.164;2023-04-24T02:49:02;12.60;73.80
76293;DHT22;67256;51.154;4.164;2023-04-24T02:51:28;12.60;74.00
76293;DHT22;67256;51.154;4.164;2023-04-24T02:53:54;12.80;73.30
76293;DHT22;67256;51.154;4.164;2023-04-24T02:56:19;12.90;73.40
76293;DHT22;67256;51.154;4.164;2023-04-24T02:58:45;12.90;73.30
76293;DHT22;67256;51.154;4.164;2023-04-24T03:01:12;12.90;73.20
76293;DHT22;67256;51.154;4.164;2023-04-24T03:03:38;12.90;73.20
76293;DHT22;67256;51.154;4.164;2023-04-24T03:06:04;12.90;73.10
76293;DHT22;67256;51.154;4.164;2023-04-24T03:08:31;12.90;73.30
76293;DHT22;67256;51.154;4.164;2023-04-24T03:10:57;12.80;73.60
76293;DHT22;67256;51.154;4.164;2023-04-24T03:13:23;12.70;74.00
76293;DHT22;67256;51.154;4.164;2023-04-24T03:15:49;12.50;75.10
76293;DHT22;67256;51.154;4.164;2023-04-24T03:18:14;12.60;74.60
76293;DHT22;67256;51.154;4.164;2023-04-24T03:20:40;12.10;75.60
76293;DHT22;67256;51.154;4.164;2023-04-24T03:23:06;11.80;78.80
76293;DHT22;67256;51.154;4.164;2023-04-24T03:25:32;12.00;78.20
76293;DHT22;67256;51.154;4.164;2023-04-24T03:27:57;12.10;77.70
76293;DHT22;67256;51.154;4.164;2023-04-24T03:30:23;11.50;78.80
76293;DHT22;67256;51.154;4.164;2023-04-24T03:32:49;11.60;80.50
76293;DHT22;67256;51.154;4.164;2023-04-24T03:35:14;11.40;78.60
76293;DHT22;67256;51.154;4.164;2023-04-24T03:37:40;11.10;81.00
76293;DHT22;67256;51.154;4.164;2023-04-24T03:40:07;11.20;80.40
76293;DHT22;67256;51.154;4.164;2023-04-24T03:42:33;11.00;81.00
76293;DHT22;67256;51.154;4.164;2023-04-24T03:44:59;10.90;81.20
76293;DHT22;67256;51.154;4.164;2023-04-24T03:47:24;10.80;82.90
76293;DHT22;67256;51.154;4.164;2023-04-24T03:49:50;11.00;81.30
76293;DHT22;67256;51.154;4.164;2023-04-24T03:52:16;10.80;82.50
76293;DHT22;67256;51.154;4.164;2023-04-24T03:54:42;10.70;82.60
76293;DHT22;67256;51.154;4.164;2023-04-24T03:57:07;10.90;82.80
76293;DHT22;67256;51.154;4.164;2023-04-24T03:59:33;11.10;81.20
76293;DHT22;67256;51.154;4.164;2023-04-24T04:01:59;10.80;82.10
76293;DHT22;67256;51.154;4.164;2023-04-24T04:04:24;10.60;82.40
76293;DHT22;67256;51.154;4.164;2023-04-24T04:06:50;10.70;83.60
76293;DHT22;67256;51.154;4.164;2023-04-24T04:09:16;10.40;83.00
76293;DHT22;67256;51.154;4.164;2023-04-24T04:11:42;10.70;82.90
76293;DHT22;67256;51.154;4.164;2023-04-24T04:14:07;10.80;82.30
76293;DHT22;67256;51.154;4.164;2023-04-24T04:16:33;10.80;82.60
76293;DHT22;67256;51.154;4.164;2023-04-24T04:18:59;10.80;81.40
76293;DHT22;67256;51.154;4.164;2023-04-24T04:21:25;10.60;82.20
76293;DHT22;67256;51.154;4.164;2023-04-24T04:23:51;10.70;81.30
76293;DHT22;67256;51.154;4.164;2023-04-24T04:26:17;10.50;84.00
76293;DHT22;67256;51.154;4.164;2023-04-24T04:28:44;10.50;83.60
76293;DHT22;67256;51.154;4.164;2023-04-24T04:31:10;10.10;84.70
76293;DHT22;67256;51.154;4.164;2023-04-24T04:33:35;10.00;85.30
76293;DHT22;67256;51.154;4.164;2023-04-24T04:36:03;10.10;84.70
76293;DHT22;67256;51.154;4.164;2023-04-24T04:38:29;10.10;87.00
76293;DHT22;67256;51.154;4.164;2023-04-24T04:40:55;10.00;84.60
76293;DHT22;67256;51.154;4.164;2023-04-24T04:43:24;9.80;86.90
76293;DHT22;67256;51.154;4.164;2023-04-24T04:45:50;9.70;87.60
76293;DHT22;67256;51.154;4.164;2023-04-24T04:48:17;9.90;89.20
76293;DHT22;67256;51.154;4.164;2023-04-24T04:50:43;10.20;87.80
76293;DHT22;67256;51.154;4.164;2023-04-24T04:53:09;10.30;86.70
76293;DHT22;67256;51.154;4.164;2023-04-24T04:55:34;10.40;85.50
76293;DHT22;67256;51.154;4.164;2023-04-24T04:58:00;10.10;85.60
76293;DHT22;67256;51.154;4.164;2023-04-24T05:00:26;10.20;85.80
76293;DHT22;67256;51.154;4.164;2023-04-24T05:02:54;10.20;84.40
76293;DHT22;67256;51.154;4.164;2023-04-24T05:05:20;9.90;84.80
76293;DHT22;67256;51.154;4.164;2023-04-24T05:07:45;9.80;86.00
76293;DHT22;67256;51.154;4.164;2023-04-24T05:10:11;9.80;85.00
76293;DHT22;67256;51.154;4.164;2023-04-24T05:12:37;9.80;85.80
76293;DHT22;67256;51.154;4.164;2023-04-24T05:15:03;10.00;84.80
76293;DHT22;67256;51.154;4.164;2023-04-24T05:17:29;10.20;85.10
76293;DHT22;67256;51.154;4.164;2023-04-24T05:19:54;10.20;84.00
76293;DHT22;67256;51.154;4.164;2023-04-24T05:22:20;10.10;83.10
76293;DHT22;67256;51.154;4.164;2023-04-24T05:24:47;10.10;83.80
76293;DHT22;67256;51.154;4.164;2023-04-24T05:27:13;10.00;84.30
76293;DHT22;67256;51.154;4.164;2023-04-24T05:29:38;10.20;84.40
76293;DHT22;67256;51.154;4.164;2023-04-24T05:32:05;10.20;83.20
76293;DHT22;67256;51.154;4.164;2023-04-24T05:34:31;10.10;83.40
76293;DHT22;67256;51.154;4.164;2023-04-24T05:36:57;10.10;84.80
76293;DHT22;67256;51.154;4.164;2023-04-24T05:39:23;10.10;84.60
76293;DHT22;67256;51.154;4.164;2023-04-24T05:41:50;10.20;83.10
76293;DHT22;67256;51.154;4.164;2023-04-24T05:44:16;10.20;83.40
76293;DHT22;67256;51.154;4.164;2023-04-24T05:46:41;10.40;84.10
76293;DHT22;67256;51.154;4.164;2023-04-24T05:49:07;10.70;83.10
76293;DHT22;67256;51.154;4.164;2023-04-24T05:51:33;11.00;82.20
76293;DHT22;67256;51.154;4.164;2023-04-24T05:53:58;11.10;80.60
76293;DHT22;67256;51.154;4.164;2023-04-24T05:56:24;11.00;80.50
76293;DHT22;67256;51.154;4.164;2023-04-24T05:58:50;11.20;80.60
76293;DHT22;67256;51.154;4.164;2023-04-24T06:01:16;11.20;80.80
76293;DHT22;67256;51.154;4.164;2023-04-24T06:03:42;11.30;79.80
76293;DHT22;67256;51.154;4.164;2023-04-24T06:06:08;11.20;80.60
76293;DHT22;67256;51.154;4.164;2023-04-24T06:08:34;11.30;79.80
76293;DHT22;67256;51.154;4.164;2023-04-24T06:11:00;11.30;80.20
76293;DHT22;67256;51.154;4.164;2023-04-24T06:13:26;11.40;79.80
76293;DHT22;67256;51.154;4.164;2023-04-24T06:15:52;11.60;78.80
76293;DHT22;67256;51.154;4.164;2023-04-24T06:18:18;10.90;80.00
76293;DHT22;67256;51.154;4.164;2023-04-24T06:20:45;10.90;81.10
76293;DHT22;67256;51.154;4.164;2023-04-24T06:23:11;11.10;80.30
76293;DHT22;67256;51.154;4.164;2023-04-24T06:25:37;11.00;80.80
76293;DHT22;67256;51.154;4.164;2023-04-24T06:28:03;11.00;81.00
76293;DHT22;67256;51.154;4.164;2023-04-24T06:30:28;10.80;80.90
76293;DHT22;67256;51.154;4.164;2023-04-24T06:32:54;10.70;81.60
76293;DHT22;67256;51.154;4.164;2023-04-24T06:35:20;10.80;81.60
76293;DHT22;67256;51.154;4.164;2023-04-24T06:37:46;10.70;81.40
76293;DHT22;67256;51.154;4.164;2023-04-24T06:40:12;10.70;81.20
76293;DHT22;67256;51.154;4.164;2023-04-24T06:42:38;10.70;82.30
76293;DHT22;67256;51.154;4.164;2023-04-24T06:45:04;10.80;80.80
76293;DHT22;67256;51.154;4.164;2023-04-24T06:47:30;10.40;82.40
76293;DHT22;67256;51.154;4.164;2023-04-24T06:49:56;10.30;82.40
76293;DHT22;67256;51.154;4.164;2023-04-24T06:52:22;10.10;83.20
76293;DHT22;67256;51.154;4.164;2023-04-24T06:54:48;9.80;83.50
76293;DHT22;67256;51.154;4.164;2023-04-24T06:57:14;9.70;84.10
76293;DHT22;67256;51.154;4.164;2023-04-24T06:59:41;9.80;84.80
76293;DHT22;67256;51.154;4.164;2023-04-24T07:02:07;9.70;84.70
76293;DHT22;67256;51.154;4.164;2023-04-24T07:04:33;9.60;85.80
76293;DHT22;67256;51.154;4.164;2023-04-24T07:06:59;9.60;85.60
76293;DHT22;67256;51.154;4.164;2023-04-24T07:09:25;9.60;84.60
76293;DHT22;67256;51.154;4.164;2023-04-24T07:11:52;9.60;84.90
76293;DHT22;67256;51.154;4.164;2023-04-24T07:14:18;9.60;84.70
76293;DHT22;67256;51.154;4.164;2023-04-24T07:16:44;9.70;85.30
76293;DHT22;67256;51.154;4.164;2023-04-24T07:19:10;9.90;84.50
76293;DHT22;67256;51.154;4.164;2023-04-24T07:21:36;9.90;83.80
76293;DHT22;67256;51.154;4.164;2023-04-24T07:24:02;10.00;84.40
76293;DHT22;67256;51.154;4.164;2023-04-24T07:26:29;10.20;83.40
76293;DHT22;67256;51.154;4.164;2023-04-24T07:28:55;10.30;83.10
76293;DHT22;67256;51.154;4.164;2023-04-24T07:31:21;10.50;82.70
76293;DHT22;67256;51.154;4.164;2023-04-24T07:33:47;10.50;81.10
76293;DHT22;67256;51.154;4.164;2023-04-24T07:36:13;10.40;81.90
76293;DHT22;67256;51.154;4.164;2023-04-24T07:38:42;10.30;83.50
76293;DHT22;67256;51.154;4.164;2023-04-24T07:41:08;10.20;84.10
76293;DHT22;67256;51.154;4.164;2023-04-24T07:43:35;10.40;83.70
76293;DHT22;67256;51.154;4.164;2023-04-24T07:46:00;10.60;82.60
76293;DHT22;67256;51.154;4.164;2023-04-24T07:48:26;10.70;82.20
76293;DHT22;67256;51.154;4.164;2023-04-24T07:50:53;11.00;81.50
76293;DHT22;67256;51.154;4.164;2023-04-24T07:53:18;10.80;80.40
76293;DHT22;67256;51.154;4.164;2023-04-24T07:55:44;10.80;81.70
76293;DHT22;67256;51.154;4.164;2023-04-24T07:58:10;10.80;80.00
76293;DHT22;67256;51.154;4.164;2023-04-24T08:00:36;10.50;80.90
76293;DHT22;67256;51.154;4.164;2023-04-24T08:03:01;10.50;81.60
76293;DHT22;67256;51.154;4.164;2023-04-24T08:05:27;10.40;80.90
76293;DHT22;67256;51.154;4.164;2023-04-24T08:07:54;10.30;80.50
76293;DHT22;67256;51.154;4.164;2023-04-24T08:10:21;10.30;82.30
76293;DHT22;67256;51.154;4.164;2023-04-24T08:12:47;10.30;79.50
76293;DHT22;67256;51.154;4.164;2023-04-24T08:15:13;10.30;79.60
76293;DHT22;67256;51.154;4.164;2023-04-24T08:17:38;10.30;78.60
76293;DHT22;67256;51.154;4.164;2023-04-24T08:20:05;10.30;79.80
76293;DHT22;67256;51.154;4.164;2023-04-24T08:22:31;10.50;79.40
76293;DHT22;67256;51.154;4.164;2023-04-24T08:24:59;10.80;78.00
76293;DHT22;67256;51.154;4.164;2023-04-24T08:27:26;11.00;78.20
76293;DHT22;67256;51.154;4.164;2023-04-24T08:29:53;10.70;75.60
76293;DHT22;67256;51.154;4.164;2023-04-24T08:32:19;10.50;76.20
76293;DHT22;67256;51.154;4.164;2023-04-24T08:34:44;10.60;78.00
76293;DHT22;67256;51.154;4.164;2023-04-24T08:37:10;10.80;77.70
76293;DHT22;67256;51.154;4.164;2023-04-24T08:39:36;10.70;77.00
76293;DHT22;67256;51.154;4.164;2023-04-24T08:42:03;10.80;77.80
76293;DHT22;67256;51.154;4.164;2023-04-24T08:44:34;11.00;77.90
76293;DHT22;67256;51.154;4.164;2023-04-24T08:47:02;11.00;77.10
76293;DHT22;67256;51.154;4.164;2023-04-24T08:49:29;11.00;77.50
76293;DHT22;67256;51.154;4.164;2023-04-24T08:51:55;11.10;76.90
76293;DHT22;67256;51.154;4.164;2023-04-24T08:54:21;10.90;76.60
76293;DHT22;67256;51.154;4.164;2023-04-24T08:56:48;10.40;78.10
76293;DHT22;67256;51.154;4.164;2023-04-24T08:59:15;10.40;76.80
76293;DHT22;67256;51.154;4.164;2023-04-24T09:01:41;10.40;77.90
76293;DHT22;67256;51.154;4.164;2023-04-24T09:04:08;10.40;75.70
76293;DHT22;67256;51.154;4.164;2023-04-24T09:06:38;10.50;77.00
76293;DHT22;67256;51.154;4.164;2023-04-24T09:09:04;10.50;75.10
76293;DHT22;67256;51.154;4.164;2023-04-24T09:11:31;10.70;75.70
76293;DHT22;67256;51.154;4.164;2023-04-24T09:13:58;10.90;76.80
76293;DHT22;67256;51.154;4.164;2023-04-24T09:16:25;10.90;72.80
76293;DHT22;67256;51.154;4.164;2023-04-24T09:18:51;10.80;75.10
76293;DHT22;67256;51.154;4.164;2023-04-24T09:21:20;10.90;75.40
76293;DHT22;67256;51.154;4.164;2023-04-24T09:23:46;11.20;73.80
76293;DHT22;67256;51.154;4.164;2023-04-24T09:26:11;11.20;72.50
76293;DHT22;67256;51.154;4.164;2023-04-24T09:28:41;11.20;71.50
76293;DHT22;67256;51.154;4.164;2023-04-24T09:31:13;11.10;69.20
76293;DHT22;67256;51.154;4.164;2023-04-24T09:34:00;11.10;69.60
76293;DHT22;67256;51.154;4.164;2023-04-24T09:36:31;11.00;70.30
76293;DHT22;67256;51.154;4.164;2023-04-24T09:39:04;10.80;68.30
76293;DHT22;67256;51.154;4.164;2023-04-24T09:41:32;10.70;68.30
76293;DHT22;67256;51.154;4.164;2023-04-24T09:44:16;10.70;67.80
76293;DHT22;67256;51.154;4.164;2023-04-24T09:46:44;10.70;67.80
76293;DHT22;67256;51.154;4.164;2023-04-24T09:49:13;10.60;68.50
76293;DHT22;67256;51.154;4.164;2023-04-24T09:51:39;10.70;68.30
76293;DHT22;67256;51.154;4.164;2023-04-24T09:54:14;10.90;68.40
76293;DHT22;67256;51.154;4.164;2023-04-24T09:56:43;10.80;67.50
76293;DHT22;67256;51.154;4.164;2023-04-24T09:59:10;10.80;68.60
76293;DHT22;67256;51.154;4.164;2023-04-24T10:01:36;11.10;70.10
76293;DHT22;67256;51.154;4.164;2023-04-24T10:04:04;11.40;68.70
76293;DHT22;67256;51.154;4.164;2023-04-24T10:06:36;11.50;64.50
76293;DHT22;67256;51.154;4.164;2023-04-24T10:09:02;11.50;66.80
76293;DHT22;67256;51.154;4.164;2023-04-24T10:11:30;11.70;66.60
76293;DHT22;67256;51.154;4.164;2023-04-24T10:13:56;11.50;64.50
76293;DHT22;67256;51.154;4.164;2023-04-24T10:16:23;11.30;65.50
76293;DHT22;67256;51.154;4.164;2023-04-24T10:18:49;11.40;65.90
76293;DHT22;67256;51.154;4.164;2023-04-24T10:21:16;11.20;65.30
76293;DHT22;67256;51.154;4.164;2023-04-24T10:23:43;11.20;68.30
76293;DHT22;67256;51.154;4.164;2023-04-24T10:26:12;11.40;65.20
76293;DHT22;67256;51.154;4.164;2023-04-24T10:28:46;11.60;65.90
76293;DHT22;67256;51.154;4.164;2023-04-24T10:31:14;11.70;65.20
76293;DHT22;67256;51.154;4.164;2023-04-24T10:33:43;11.90;65.10
76293;DHT22;67256;51.154;4.164;2023-04-24T10:36:12;11.60;63.70
76293;DHT22;67256;51.154;4.164;2023-04-24T10:38:40;11.40;64.80
76293;DHT22;67256;51.154;4.164;2023-04-24T10:41:11;11.20;65.10
76293;DHT22;67256;51.154;4.164;2023-04-24T10:43:45;11.40;65.40
76293;DHT22;67256;51.154;4.164;2023-04-24T10:46:18;11.70;64.90
76293;DHT22;67256;51.154;4.164;2023-04-24T10:48:52;11.80;63.60
76293;DHT22;67256;51.154;4.164;2023-04-24T10:51:22;11.90;64.80
76293;DHT22;67256;51.154;4.164;2023-04-24T10:53:52;12.20;63.80
76293;DHT22;67256;51.154;4.164;2023-04-24T10:56:18;12.30;62.10
76293;DHT22;67256;51.154;4.164;2023-04-24T10:58:52;12.10;63.00
76293;DHT22;67256;51.154;4.164;2023-04-24T11:01:29;11.90;65.60
76293;DHT22;67256;51.154;4.164;2023-04-24T11:03:56;12.20;64.20
76293;DHT22;67256;51.154;4.164;2023-04-24T11:09:02;11.60;62.80
76293;DHT22;67256;51.154;4.164;2023-04-24T11:11:30;11.40;60.50
76293;DHT22;67256;51.154;4.164;2023-04-24T11:16:32;11.30;61.40
76293;DHT22;67256;51.154;4.164;2023-04-24T11:19:08;11.20;61.30
76293;DHT22;67256;51.154;4.164;2023-04-24T11:21:48;11.10;61.90
76293;DHT22;67256;51.154;4.164;2023-04-24T11:30:16;11.80;60.40
76293;DHT22;67256;51.154;4.164;2023-04-24T11:32:37;11.70;60.40
76293;DHT22;67256;51.154;4.164;2023-04-24T11:35:08;12.00;59.60
76293;DHT22;67256;51.154;4.164;2023-04-24T11:40:02;11.70;58.30
76293;DHT22;67256;51.154;4.164;2023-04-24T11:42:34;11.70;59.20
76293;DHT22;67256;51.154;4.164;2023-04-24T11:45:00;11.70;59.20
76293;DHT22;67256;51.154;4.164;2023-04-24T11:47:30;11.70;58.00
76293;DHT22;67256;51.154;4.164;2023-04-24T11:49:58;11.60;57.70
76293;DHT22;67256;51.154;4.164;2023-04-24T11:52:25;11.60;58.00
76293;DHT22;67256;51.154;4.164;2023-04-24T11:54:50;11.50;58.10
76293;DHT22;67256;51.154;4.164;2023-04-24T11:57:20;11.50;58.20
76293;DHT22;67256;51.154;4.164;2023-04-24T11:59:46;11.20;56.80
76293;DHT22;67256;51.154;4.164;2023-04-24T12:02:22;11.20;58.40
76293;DHT22;67256;51.154;4.164;2023-04-24T12:04:48;11.50;59.20
76293;DHT22;67256;51.154;4.164;2023-04-24T12:07:14;11.60;58.00
76293;DHT22;67256;51.154;4.164;2023-04-24T12:09:47;11.50;57.80
76293;DHT22;67256;51.154;4.164;2023-04-24T12:12:18;11.60;58.90
76293;DHT22;67256;51.154;4.164;2023-04-24T12:14:51;11.70;57.70
76293;DHT22;67256;51.154;4.164;2023-04-24T12:17:17;12.00;59.20
76293;DHT22;67256;51.154;4.164;2023-04-24T12:19:48;12.00;57.80
76293;DHT22;67256;51.154;4.164;2023-04-24T12:22:16;12.10;57.60
76293;DHT22;67256;51.154;4.164;2023-04-24T12:25:02;12.40;58.50
76293;DHT22;67256;51.154;4.164;2023-04-24T12:27:34;12.50;55.60
76293;DHT22;67256;51.154;4.164;2023-04-24T12:30:01;12.40;55.50
76293;DHT22;67256;51.154;4.164;2023-04-24T12:32:27;12.20;56.40
76293;DHT22;67256;51.154;4.164;2023-04-24T12:34:54;12.20;58.30
76293;DHT22;67256;51.154;4.164;2023-04-24T12:37:20;12.10;59.30
76293;DHT22;67256;51.154;4.164;2023-04-24T12:40:06;12.00;59.80
76293;DHT22;67256;51.154;4.164;2023-04-24T12:42:32;12.00;60.00
76293;DHT22;67256;51.154;4.164;2023-04-24T12:45:00;11.90;60.70
76293;DHT22;67256;51.154;4.164;2023-04-24T12:47:27;11.80;60.80
76293;DHT22;67256;51.154;4.164;2023-04-24T12:49:53;11.80;61.40
76293;DHT22;67256;51.154;4.164;2023-04-24T12:52:24;11.70;61.10
76293;DHT22;67256;51.154;4.164;2023-04-24T12:54:59;11.50;61.10
76293;DHT22;67256;51.154;4.164;2023-04-24T12:57:27;11.40;61.30
76293;DHT22;67256;51.154;4.164;2023-04-24T12:59:58;11.40;60.40
76293;DHT22;67256;51.154;4.164;2023-04-24T13:02:25;11.30;59.80
76293;DHT22;67256;51.154;4.164;2023-04-24T13:04:51;11.40;60.70
76293;DHT22;67256;51.154;4.164;2023-04-24T13:07:17;11.60;57.60
76293;DHT22;67256;51.154;4.164;2023-04-24T13:09:44;11.50;57.00
76293;DHT22;67256;51.154;4.164;2023-04-24T13:12:10;11.50;57.60
76293;DHT22;67256;51.154;4.164;2023-04-24T13:14:37;11.80;57.90
76293;DHT22;67256;51.154;4.164;2023-04-24T13:17:03;11.90;55.70
76293;DHT22;67256;51.154;4.164;2023-04-24T13:19:29;12.20;56.40
76293;DHT22;67256;51.154;4.164;2023-04-24T13:21:56;12.20;53.80
76293;DHT22;67256;51.154;4.164;2023-04-24T13:24:23;12.30;54.00
76293;DHT22;67256;51.154;4.164;2023-04-24T13:26:54;12.50;54.90
76293;DHT22;67256;51.154;4.164;2023-04-24T13:29:22;12.50;51.40
76293;DHT22;67256;51.154;4.164;2023-04-24T13:31:49;12.30;53.80
76293;DHT22;67256;51.154;4.164;2023-04-24T13:34:15;12.30;53.50
76293;DHT22;67256;51.154;4.164;2023-04-24T13:36:40;12.10;54.10
76293;DHT22;67256;51.154;4.164;2023-04-24T13:39:06;12.20;55.60
76293;DHT22;67256;51.154;4.164;2023-04-24T13:41:32;12.20;55.60
76293;DHT22;67256;51.154;4.164;2023-04-24T13:43:58;12.10;55.40
76293;DHT22;67256;51.154;4.164;2023-04-24T13:46:24;12.00;55.40
76293;DHT22;67256;51.154;4.164;2023-04-24T13:48:50;12.00;55.70
76293;DHT22;67256;51.154;4.164;2023-04-24T13:51:15;12.00;54.70
76293;DHT22;67256;51.154;4.164;2023-04-24T13:53:41;12.00;55.90
76293;DHT22;67256;51.154;4.164;2023-04-24T13:56:06;11.90;56.50
76293;DHT22;67256;51.154;4.164;2023-04-24T13:58:33;11.90;56.10
76293;DHT22;67256;51.154;4.164;2023-04-24T14:00:59;12.00;56.20
76293;DHT22;67256;51.154;4.164;2023-04-24T14:03:24;11.90;56.00
76293;DHT22;67256;51.154;4.164;2023-04-24T14:05:51;11.80;57.20
76293;DHT22;67256;51.154;4.164;2023-04-24T14:08:16;11.80;58.20
76293;DHT22;67256;51.154;4.164;2023-04-24T14:10:42;11.80;57.80
76293;DHT22;67256;51.154;4.164;2023-04-24T14:13:08;11.80;58.20
76293;DHT22;67256;51.154;4.164;2023-04-24T14:15:35;11.90;58.20
76293;DHT22;67256;51.154;4.164;2023-04-24T14:18:01;11.90;58.00
76293;DHT22;67256;51.154;4.164;2023-04-24T14:20:28;12.00;57.00
76293;DHT22;67256;51.154;4.164;2023-04-24T14:23:00;12.00;57.10
76293;DHT22;67256;51.154;4.164;2023-04-24T14:25:26;11.80;56.70
76293;DHT22;67256;51.154;4.164;2023-04-24T14:27:51;12.00;57.50
76293;DHT22;67256;51.154;4.164;2023-04-24T14:30:18;12.00;56.50
76293;DHT22;67256;51.154;4.164;2023-04-24T14:32:43;11.90;55.80
76293;DHT22;67256;51.154;4.164;2023-04-24T14:35:09;12.00;55.90
76293;DHT22;67256;51.154;4.164;2023-04-24T14:37:35;12.00;55.90
76293;DHT22;67256;51.154;4.164;2023-04-24T14:40:01;12.00;55.60
76293;DHT22;67256;51.154;4.164;2023-04-24T14:42:28;12.20;56.30
76293;DHT22;67256;51.154;4.164;2023-04-24T14:44:54;12.10;55.80
76293;DHT22;67256;51.154;4.164;2023-04-24T14:47:20;12.20;55.20
76293;DHT22;67256;51.154;4.164;2023-04-24T14:49:49;12.20;53.60
76293;DHT22;67256;51.154;4.164;2023-04-24T14:52:14;12.10;53.80
76293;DHT22;67256;51.154;4.164;2023-04-24T14:54:41;12.00;54.40
76293;DHT22;67256;51.154;4.164;2023-04-24T14:57:07;12.10;56.10
76293;DHT22;67256;51.154;4.164;2023-04-24T14:59:33;12.20;56.40
76293;DHT22;67256;51.154;4.164;2023-04-24T15:01:59;12.40;56.80
76293;DHT22;67256;51.154;4.164;2023-04-24T15:04:25;12.70;57.10
76293;DHT22;67256;51.154;4.164;2023-04-24T15:06:54;12.90;56.40
76293;DHT22;67256;51.154;4.164;2023-04-24T15:09:20;12.90;54.80
76293;DHT22;67256;51.154;4.164;2023-04-24T15:11:47;12.80;55.30
76293;DHT22;67256;51.154;4.164;2023-04-24T15:14:14;12.70;53.60
76293;DHT22;67256;51.154;4.164;2023-04-24T15:16:40;12.70;53.60
76293;DHT22;67256;51.154;4.164;2023-04-24T15:19:05;12.60;53.40
76293;DHT22;67256;51.154;4.164;2023-04-24T15:21:31;12.60;53.60
76293;DHT22;67256;51.154;4.164;2023-04-24T15:23:57;12.40;53.30
76293;DHT22;67256;51.154;4.164;2023-04-24T15:26:24;12.40;55.00
76293;DHT22;67256;51.154;4.164;2023-04-24T15:28:49;12.50;54.60
76293;DHT22;67256;51.154;4.164;2023-04-24T15:31:17;12.60;54.50
76293;DHT22;67256;51.154;4.164;2023-04-24T15:33:43;12.90;54.50
76293;DHT22;67256;51.154;4.164;2023-04-24T15:36:09;13.00;53.60
76293;DHT22;67256;51.154;4.164;2023-04-24T15:38:35;13.00;52.60
76293;DHT22;67256;51.154;4.164;2023-04-24T15:41:00;12.80;53.50
76293;DHT22;67256;51.154;4.164;2023-04-24T15:43:26;12.70;54.70